Time;durP1;ratioP1;P1;durP2;ratioP2;P2;SDS_P1;SDS_P2;PMS_P1;PMS_P2;Temp;Humidity;BMP_temperature;BMP_pressure;BME280_temperature;BME280_humidity;BME280_pressure;Samples;Min_cycle;Max_cycle;Signal;HPM_P1;HPM_P2
2022/12/02 00:00:22;0.00;0.00;0.62;0.00;0.00;0.62;9.77;7.40;;;22.60;26.10;;;;;;2236380;62;20374;-61
2022/12/02 00:03:12;0.00;0.00;0.62;0.00;0.00;0.62;12.33;7.17;;;22.70;26.10;;;;;;2235182;61;20501;-62
2022/12/02 00:05:57;0.00;0.00;0.62;0.00;0.00;0.62;9.83;7.53;;;22.70;26.10;;;;;;2236247;62;20905;-62
2022/12/02 00:08:43;0.00;0.00;0.62;0.00;0.00;0.62;8.07;6.50;;;22.60;25.90;;;;;;2236354;62;20374;-62
2022/12/02 00:11:30;0.00;0.00;0.62;0.00;0.00;0.62;10.80;7.70;;;22.60;25.90;;;;;;2235740;62;20475;-61
2022/12/02 00:14:23;0.00;0.00;0.62;0.00;0.00;0.62;10.37;8.00;;;22.60;25.90;;;;;;2236216;62;20418;-62
2022/12/02 00:17:08;0.00;0.00;0.62;0.00;0.00;0.62;10.63;7.97;;;22.60;25.90;;;;;;2235936;61;20768;-62
2022/12/02 00:19:53;0.00;0.00;0.62;0.00;0.00;0.62;10.30;7.83;;;22.60;25.80;;;;;;2236703;62;20378;-61
2022/12/02 00:22:38;0.00;0.00;0.62;0.00;0.00;0.62;10.47;7.67;;;22.60;25.80;;;;;;2236922;61;20905;-61
2022/12/02 00:25:25;0.00;0.00;0.62;0.00;0.00;0.62;12.40;9.63;;;22.60;25.80;;;;;;2235938;62;20381;-61
2022/12/02 00:28:10;0.00;0.00;0.62;0.00;0.00;0.62;11.43;8.80;;;22.50;25.70;;;;;;2236814;62;20398;-62
2022/12/02 00:30:55;0.00;0.00;0.62;0.00;0.00;0.62;12.40;8.73;;;22.50;25.60;;;;;;2237017;62;20418;-62
2022/12/02 00:33:40;0.00;0.00;0.62;0.00;0.00;0.62;12.37;8.87;;;22.50;25.50;;;;;;2235963;61;20397;-62
2022/12/02 00:36:24;0.00;0.00;0.62;0.00;0.00;0.62;13.87;9.40;;;22.50;25.50;;;;;;2236996;62;20422;-62
2022/12/02 00:39:10;0.00;0.00;0.62;0.00;0.00;0.62;11.57;9.40;;;22.50;25.50;;;;;;2236347;62;20596;-61
2022/12/02 00:41:58;0.00;0.00;0.62;0.00;0.00;0.62;12.23;9.63;;;22.50;25.50;;;;;;2236412;62;20791;-62
2022/12/02 00:47:46;0.00;0.00;0.62;0.00;0.00;0.62;13.47;9.87;;;22.50;25.40;;;;;;2232757;62;20926;-61
2022/12/02 00:50:31;0.00;0.00;0.62;0.00;0.00;0.62;13.63;10.63;;;22.50;25.30;;;;;;2237015;62;20398;-62
2022/12/02 00:53:16;0.00;0.00;0.62;0.00;0.00;0.62;15.53;11.03;;;22.40;25.30;;;;;;2236874;62;20442;-62
2022/12/02 00:56:01;0.00;0.00;0.62;0.00;0.00;0.62;14.90;10.80;;;22.40;25.30;;;;;;2233198;62;20374;-61
2022/12/02 00:58:47;0.00;0.00;0.62;0.00;0.00;0.62;11.63;9.17;;;22.40;25.30;;;;;;2233797;62;20381;-61
2022/12/02 01:01:34;0.00;0.00;0.62;0.00;0.00;0.62;12.87;9.80;;;22.40;25.20;;;;;;2230309;62;20938;-61
2022/12/02 01:04:19;0.00;0.00;0.62;0.00;0.00;0.62;13.60;10.83;;;22.40;25.20;;;;;;2236617;62;20393;-62
2022/12/02 01:07:04;0.00;0.00;0.62;0.00;0.00;0.62;15.30;10.63;;;22.40;25.20;;;;;;2236835;62;20355;-61
2022/12/02 01:09:48;0.00;0.00;0.62;0.00;0.00;0.62;15.00;10.97;;;22.30;25.10;;;;;;2235710;62;20880;-61
2022/12/02 01:12:33;0.00;0.00;0.62;0.00;0.00;0.62;13.40;10.53;;;22.30;25.00;;;;;;2233722;62;20772;-62
2022/12/02 01:15:19;0.00;0.00;0.62;0.00;0.00;0.62;15.90;10.90;;;22.30;25.00;;;;;;2236853;62;20407;-62
2022/12/02 01:18:04;0.00;0.00;0.62;0.00;0.00;0.62;17.30;12.03;;;22.30;25.00;;;;;;2236329;62;20471;-62
2022/12/02 01:20:49;0.00;0.00;0.62;0.00;0.00;0.62;14.40;11.13;;;22.30;25.50;;;;;;2236849;62;20382;-62
2022/12/02 01:23:34;0.00;0.00;0.62;0.00;0.00;0.62;15.87;12.43;;;22.30;25.00;;;;;;2235930;62;20441;-62
2022/12/02 01:26:19;0.00;0.00;0.62;0.00;0.00;0.62;16.17;11.23;;;22.30;24.90;;;;;;2235899;62;20463;-61
2022/12/02 01:29:03;0.00;0.00;0.62;0.00;0.00;0.62;13.50;10.50;;;22.30;24.90;;;;;;2236361;62;20466;-62
2022/12/02 01:31:49;0.00;0.00;0.62;0.00;0.00;0.62;14.30;10.40;;;22.20;24.90;;;;;;2235652;62;20910;-61
2022/12/02 01:34:34;0.00;0.00;0.62;0.00;0.00;0.62;15.10;12.37;;;22.20;25.40;;;;;;2233480;62;20861;-62
2022/12/02 01:37:18;0.00;0.00;0.62;0.00;0.00;0.62;13.90;11.20;;;22.20;25.40;;;;;;2233684;62;20801;-61
2022/12/02 01:40:05;0.00;0.00;0.62;0.00;0.00;0.62;14.53;11.60;;;22.20;24.90;;;;;;2232799;62;20370;-62
2022/12/02 01:42:50;0.00;0.00;0.62;0.00;0.00;0.62;14.50;11.40;;;22.20;24.90;;;;;;2233365;62;20437;-62
2022/12/02 01:45:35;0.00;0.00;0.62;0.00;0.00;0.62;18.77;13.77;;;22.20;24.90;;;;;;2232989;62;20419;-62
2022/12/02 01:48:21;0.00;0.00;0.62;0.00;0.00;0.62;15.23;12.10;;;22.10;24.80;;;;;;2236541;62;20379;-62
2022/12/02 01:51:06;0.00;0.00;0.62;0.00;0.00;0.62;15.47;12.37;;;22.10;24.80;;;;;;2236485;62;20370;-62
2022/12/02 01:53:52;0.00;0.00;0.62;0.00;0.00;0.62;15.53;11.77;;;22.10;24.70;;;;;;2235845;62;20399;-61
2022/12/02 01:56:38;0.00;0.00;0.62;0.00;0.00;0.62;15.17;11.53;;;22.10;24.70;;;;;;2236617;62;20461;-62
2022/12/02 01:59:23;0.00;0.00;0.62;0.00;0.00;0.62;14.63;11.73;;;22.10;24.70;;;;;;2233585;62;20371;-61
2022/12/02 02:02:25;0.00;0.00;0.62;0.00;0.00;0.62;16.23;12.80;;;22.00;24.60;;;;;;2235625;62;20482;-62
2022/12/02 02:05:15;0.00;0.00;0.62;0.00;0.00;0.62;17.90;12.13;;;22.00;24.60;;;;;;2236573;62;20398;-61
2022/12/02 02:08:05;0.00;0.00;0.62;0.00;0.00;0.62;16.10;12.70;;;22.00;24.60;;;;;;2232865;62;20887;-61
2022/12/02 02:10:50;0.00;0.00;0.62;0.00;0.00;0.62;15.07;11.73;;;22.00;24.60;;;;;;2233109;62;20406;-62
2022/12/02 02:13:35;0.00;0.00;0.62;0.00;0.00;0.62;15.53;12.37;;;22.00;24.60;;;;;;2233524;62;20398;-62
2022/12/02 02:16:21;0.00;0.00;0.62;0.00;0.00;0.62;15.93;12.00;;;22.00;24.60;;;;;;2232398;62;20520;-62
2022/12/02 02:19:11;0.00;0.00;0.62;0.00;0.00;0.62;17.80;13.43;;;22.00;24.60;;;;;;2233230;62;20929;-61
2022/12/02 02:22:00;0.00;0.00;0.62;0.00;0.00;0.62;16.87;12.93;;;21.90;24.60;;;;;;2236669;62;20342;-62
2022/12/02 02:24:46;0.00;0.00;0.62;0.00;0.00;0.62;16.23;12.47;;;21.90;24.60;;;;;;2236145;62;20762;-62
2022/12/02 02:27:31;0.00;0.00;0.62;0.00;0.00;0.62;19.10;12.73;;;21.90;24.60;;;;;;2236742;62;20429;-61
2022/12/02 02:30:16;0.00;0.00;0.62;0.00;0.00;0.62;14.20;11.90;;;21.90;24.60;;;;;;2235857;62;20496;-61
2022/12/02 02:33:03;0.00;0.00;0.62;0.00;0.00;0.62;16.57;12.73;;;21.90;24.60;;;;;;2232795;62;20398;-62
2022/12/02 02:35:48;0.00;0.00;0.62;0.00;0.00;0.62;15.40;11.60;;;21.80;24.60;;;;;;2236146;62;20413;-62
2022/12/02 02:38:34;0.00;0.00;0.62;0.00;0.00;0.62;15.60;11.23;;;21.80;24.60;;;;;;2232553;62;20370;-61
2022/12/02 02:41:21;0.00;0.00;0.62;0.00;0.00;0.62;16.87;12.80;;;21.80;24.60;;;;;;2232970;62;20455;-62
2022/12/02 02:44:06;0.00;0.00;0.62;0.00;0.00;0.62;17.33;13.80;;;21.80;24.60;;;;;;2236502;62;20479;-62
2022/12/02 02:46:51;0.00;0.00;0.62;0.00;0.00;0.62;16.63;13.20;;;21.80;25.10;;;;;;2236019;62;20371;-62
2022/12/02 02:49:37;0.00;0.00;0.62;0.00;0.00;0.62;14.87;12.90;;;21.80;24.50;;;;;;2233332;62;20772;-62
2022/12/02 02:52:21;0.00;0.00;0.62;0.00;0.00;0.62;18.87;12.57;;;21.80;25.10;;;;;;2235844;62;20425;-61
2022/12/02 02:55:11;0.00;0.00;0.62;0.00;0.00;0.62;19.10;14.30;;;21.80;24.50;;;;;;2236056;62;20370;-62
2022/12/02 02:58:08;0.00;0.00;0.62;0.00;0.00;0.62;18.47;13.30;;;21.70;24.50;;;;;;2233304;62;20366;-61
2022/12/02 03:00:57;0.00;0.00;0.62;0.00;0.00;0.62;17.93;13.07;;;21.70;24.50;;;;;;2232174;62;20379;-61
2022/12/02 03:03:47;0.00;0.00;0.62;0.00;0.00;0.62;15.83;12.00;;;21.70;24.50;;;;;;2233423;62;20807;-62
2022/12/02 03:06:36;0.00;0.00;0.62;0.00;0.00;0.62;19.07;13.80;;;21.70;24.50;;;;;;2233128;62;20521;-61
2022/12/02 03:09:22;0.00;0.00;0.62;0.00;0.00;0.62;17.10;12.73;;;21.70;24.50;;;;;;2236055;62;20874;-61
2022/12/02 03:12:08;0.00;0.00;0.62;0.00;0.00;0.62;16.27;13.17;;;21.70;24.50;;;;;;2236451;62;20438;-62
2022/12/02 03:14:55;0.00;0.00;0.62;0.00;0.00;0.62;19.37;14.50;;;21.70;24.50;;;;;;2235892;62;20943;-62
2022/12/02 03:17:39;0.00;0.00;0.62;0.00;0.00;0.62;16.80;13.63;;;21.70;24.40;;;;;;2236442;62;20378;-62
2022/12/02 03:20:25;0.00;0.00;0.62;0.00;0.00;0.62;16.70;13.20;;;21.60;24.30;;;;;;2236325;62;20382;-62
2022/12/02 03:23:10;0.00;0.00;0.62;0.00;0.00;0.62;18.73;15.07;;;21.60;24.40;;;;;;2235239;62;20406;-62
2022/12/02 03:25:55;0.00;0.00;0.62;0.00;0.00;0.62;17.63;14.23;;;21.60;24.40;;;;;;2236573;62;20410;-62
2022/12/02 03:28:41;0.00;0.00;0.62;0.00;0.00;0.62;18.83;14.70;;;21.60;24.40;;;;;;2236292;62;20374;-62
2022/12/02 03:31:28;0.00;0.00;0.62;0.00;0.00;0.62;19.40;14.77;;;21.60;24.40;;;;;;2235798;62;20419;-62
2022/12/02 03:34:13;0.00;0.00;0.62;0.00;0.00;0.62;19.57;14.87;;;21.60;24.40;;;;;;2236355;62;20430;-62
2022/12/02 03:36:58;0.00;0.00;0.62;0.00;0.00;0.62;19.10;14.53;;;21.60;24.30;;;;;;2235828;62;20408;-61
2022/12/02 03:39:44;0.00;0.00;0.62;0.00;0.00;0.62;17.07;12.70;;;21.50;24.30;;;;;;2236149;62;20464;-61
2022/12/02 03:42:28;0.00;0.00;0.62;0.00;0.00;0.62;18.40;13.57;;;21.50;24.30;;;;;;2235649;62;20402;-61
2022/12/02 03:45:13;0.00;0.00;0.62;0.00;0.00;0.62;20.47;14.77;;;21.50;24.20;;;;;;2235390;62;20896;-62
2022/12/02 03:47:59;0.00;0.00;0.62;0.00;0.00;0.62;18.07;13.60;;;21.50;24.30;;;;;;2236309;62;20422;-62
2022/12/02 03:50:44;0.00;0.00;0.62;0.00;0.00;0.62;19.03;15.33;;;21.50;24.30;;;;;;2236217;62;20406;-62
2022/12/02 03:53:30;0.00;0.00;0.62;0.00;0.00;0.62;19.43;14.50;;;21.50;24.30;;;;;;2236545;62;20394;-62
2022/12/02 03:56:15;0.00;0.00;0.62;0.00;0.00;0.62;17.40;14.03;;;21.40;24.20;;;;;;2236831;62;20451;-62
2022/12/02 03:59:00;0.00;0.00;0.62;0.00;0.00;0.62;18.23;13.73;;;21.40;24.20;;;;;;2244221;58;20458;-62
2022/12/02 04:01:44;0.00;0.00;0.62;0.00;0.00;0.62;17.60;14.37;;;21.50;24.30;;;;;;2236628;62;20358;-62
2022/12/02 04:04:30;0.00;0.00;0.62;0.00;0.00;0.62;16.67;13.40;;;21.40;24.20;;;;;;2236903;62;20906;-62
2022/12/02 04:07:15;0.00;0.00;0.62;0.00;0.00;0.62;17.87;13.67;;;21.40;24.20;;;;;;2236112;62;20839;-62
2022/12/02 04:09:59;0.00;0.00;0.62;0.00;0.00;0.62;16.87;13.50;;;21.40;24.20;;;;;;2236904;62;20414;-61
2022/12/02 04:12:44;0.00;0.00;0.62;0.00;0.00;0.62;20.53;13.87;;;21.40;24.20;;;;;;2236777;62;20385;-62
2022/12/02 04:15:29;0.00;0.00;0.62;0.00;0.00;0.62;21.10;15.33;;;21.40;24.20;;;;;;2236220;62;20918;-62
2022/12/02 04:18:14;0.00;0.00;0.62;0.00;0.00;0.62;18.57;14.07;;;21.40;24.20;;;;;;2236957;62;20378;-61
2022/12/02 04:21:00;0.00;0.00;0.62;0.00;0.00;0.62;18.83;12.97;;;21.40;24.20;;;;;;2236063;62;20365;-62
2022/12/02 04:23:45;0.00;0.00;0.62;0.00;0.00;0.62;18.33;14.03;;;21.40;24.20;;;;;;2236460;62;20433;-62
2022/12/02 04:26:29;0.00;0.00;0.62;0.00;0.00;0.62;18.23;13.80;;;21.30;24.20;;;;;;2236778;62;20768;-62
2022/12/02 04:29:14;0.00;0.00;0.62;0.00;0.00;0.62;20.53;14.27;;;21.40;24.20;;;;;;2236194;62;20378;-62
2022/12/02 04:31:58;0.00;0.00;0.62;0.00;0.00;0.62;15.70;12.97;;;21.30;24.20;;;;;;2236635;62;20429;-62
2022/12/02 04:34:43;0.00;0.00;0.62;0.00;0.00;0.62;18.10;12.63;;;21.30;24.10;;;;;;2237184;62;20422;-61
2022/12/02 04:37:29;0.00;0.00;0.62;0.00;0.00;0.62;16.77;12.73;;;21.30;24.10;;;;;;2235967;62;20413;-62
2022/12/02 04:40:14;0.00;0.00;0.62;0.00;0.00;0.62;20.77;14.87;;;21.30;24.10;;;;;;2237025;62;20426;-62
2022/12/02 04:42:59;0.00;0.00;0.62;0.00;0.00;0.62;17.50;12.87;;;21.30;24.10;;;;;;2235834;62;21002;-62
2022/12/02 04:45:44;0.00;0.00;0.62;0.00;0.00;0.62;16.50;13.70;;;21.30;24.10;;;;;;2236475;62;20370;-62
2022/12/02 04:48:29;0.00;0.00;0.62;0.00;0.00;0.62;17.30;13.83;;;21.30;24.10;;;;;;2236745;62;20430;-62
2022/12/02 04:51:14;0.00;0.00;0.62;0.00;0.00;0.62;17.80;12.83;;;21.20;24.10;;;;;;2236399;62;20422;-61
2022/12/02 04:54:00;0.00;0.00;0.62;0.00;0.00;0.62;16.47;13.97;;;21.30;24.10;;;;;;2236830;62;20398;-62
2022/12/02 04:56:44;0.00;0.00;0.62;0.00;0.00;0.62;17.70;13.53;;;21.20;24.10;;;;;;2236891;62;20378;-62
2022/12/02 04:59:30;0.00;0.00;0.62;0.00;0.00;0.62;18.90;13.73;;;21.20;24.10;;;;;;2235934;62;20438;-62
2022/12/02 05:02:14;0.00;0.00;0.62;0.00;0.00;0.62;17.27;12.70;;;21.20;24.10;;;;;;2236733;62;20359;-61
2022/12/02 05:04:59;0.00;0.00;0.62;0.00;0.00;0.62;16.47;13.33;;;21.20;24.10;;;;;;2236240;62;20418;-61
2022/12/02 05:07:44;0.00;0.00;0.62;0.00;0.00;0.62;17.67;13.40;;;21.20;24.10;;;;;;2236434;62;20922;-62
2022/12/02 05:10:30;0.00;0.00;0.62;0.00;0.00;0.62;18.37;13.83;;;21.20;24.00;;;;;;2236724;62;20406;-62
2022/12/02 05:13:15;0.00;0.00;0.62;0.00;0.00;0.62;17.80;14.13;;;21.20;24.10;;;;;;2236088;62;20418;-64
2022/12/02 05:15:59;0.00;0.00;0.62;0.00;0.00;0.62;18.80;13.50;;;21.20;24.10;;;;;;2236451;62;20422;-62
2022/12/02 05:18:44;0.00;0.00;0.62;0.00;0.00;0.62;18.33;13.20;;;21.20;24.10;;;;;;2236828;62;20536;-62
2022/12/02 05:21:28;0.00;0.00;0.62;0.00;0.00;0.62;17.87;13.60;;;21.20;24.10;;;;;;2235567;62;20410;-61
2022/12/02 05:24:13;0.00;0.00;0.62;0.00;0.00;0.62;16.60;13.97;;;21.10;24.00;;;;;;2236747;62;20406;-62
2022/12/02 05:26:59;0.00;0.00;0.62;0.00;0.00;0.62;19.17;13.87;;;21.10;24.00;;;;;;2236809;62;20345;-62
2022/12/02 05:29:44;0.00;0.00;0.62;0.00;0.00;0.62;19.03;14.37;;;21.10;24.00;;;;;;2235837;62;20374;-62
2022/12/02 05:32:29;0.00;0.00;0.62;0.00;0.00;0.62;13.90;11.93;;;21.10;24.10;;;;;;2236238;62;20884;-60
2022/12/02 05:35:13;0.00;0.00;0.62;0.00;0.00;0.62;16.13;13.67;;;21.10;24.10;;;;;;2234799;61;20882;-59
2022/12/02 05:37:58;0.00;0.00;0.62;0.00;0.00;0.62;17.87;13.00;;;21.10;24.20;;;;;;2739189;46;20368;-59
2022/12/02 05:40:43;0.00;0.00;0.62;0.00;0.00;0.62;17.73;13.80;;;21.10;24.30;;;;;;2278248;58;20893;-58
2022/12/02 05:43:36;0.00;0.00;0.62;0.00;0.00;0.62;17.47;13.60;;;21.10;24.30;;;;;;2235052;61;20398;-64
2022/12/02 05:46:21;0.00;0.00;0.62;0.00;0.00;0.62;16.07;12.10;;;21.10;24.30;;;;;;2234308;62;20421;-57
2022/12/02 05:49:15;0.00;0.00;0.62;0.00;0.00;0.62;16.67;13.03;;;21.10;24.30;;;;;;2236114;62;20427;-61
2022/12/02 05:52:13;0.00;0.00;0.62;0.00;0.00;0.62;18.20;13.80;;;21.10;24.30;;;;;;2235890;61;20511;-60
2022/12/02 05:55:06;0.00;0.00;0.62;0.00;0.00;0.62;19.40;14.50;;;21.10;24.90;;;;;;2236455;62;20370;-61
2022/12/02 05:57:58;0.00;0.00;0.62;0.00;0.00;0.62;18.93;14.40;;;21.10;24.30;;;;;;2236294;62;20438;-59
2022/12/02 06:00:45;0.00;0.00;0.62;0.00;0.00;0.62;16.53;13.93;;;21.10;24.40;;;;;;2235694;62;20377;-64
2022/12/02 06:03:32;0.00;0.00;0.62;0.00;0.00;0.62;17.17;14.23;;;21.10;24.40;;;;;;2236439;62;20438;-61
2022/12/02 06:06:23;0.00;0.00;0.62;0.00;0.00;0.62;18.63;14.83;;;21.10;24.30;;;;;;2235676;62;20425;-59
2022/12/02 06:09:14;0.00;0.00;0.62;0.00;0.00;0.62;20.63;15.33;;;21.10;24.20;;;;;;2415612;46;20387;-61
2022/12/02 06:12:01;0.00;0.00;0.62;0.00;0.00;0.62;17.63;13.97;;;21.10;24.30;;;;;;2236214;61;20421;-62
2022/12/02 06:14:51;0.00;0.00;0.62;0.00;0.00;0.62;20.10;15.67;;;21.10;24.80;;;;;;2235727;62;20370;-61
2022/12/02 06:17:37;0.00;0.00;0.62;0.00;0.00;0.62;19.40;15.10;;;21.10;24.30;;;;;;2236542;62;20767;-59
2022/12/02 06:20:29;0.00;0.00;0.62;0.00;0.00;0.62;19.27;14.37;;;21.10;24.40;;;;;;2235728;62;20426;-64
2022/12/02 06:23:17;0.00;0.00;0.62;0.00;0.00;0.62;16.73;13.23;;;21.10;24.50;;;;;;2236064;61;20403;-61
2022/12/02 06:26:02;0.00;0.00;0.62;0.00;0.00;0.62;14.90;12.20;;;21.10;24.50;;;;;;2236409;62;20374;-61
2022/12/02 06:28:51;0.00;0.00;0.62;0.00;0.00;0.62;16.80;13.30;;;21.10;24.60;;;;;;2235521;62;20462;-60
2022/12/02 06:31:41;0.00;0.00;0.62;0.00;0.00;0.62;14.30;11.80;;;21.10;24.60;;;;;;2236257;62;20883;-59
2022/12/02 06:34:35;0.00;0.00;0.62;0.00;0.00;0.62;16.23;12.73;;;21.10;24.60;;;;;;2235940;62;20878;-61
2022/12/02 06:37:23;0.00;0.00;0.62;0.00;0.00;0.62;15.77;11.93;;;21.10;24.70;;;;;;2235582;62;20919;-61
2022/12/02 06:40:22;0.00;0.00;0.62;0.00;0.00;0.62;17.60;12.77;;;21.10;24.70;;;;;;2235995;62;20370;-64
2022/12/02 06:43:12;0.00;0.00;0.62;0.00;0.00;0.62;14.63;11.60;;;21.10;24.60;;;;;;2235410;62;20938;-60
2022/12/02 06:45:57;0.00;0.00;0.62;0.00;0.00;0.62;15.10;12.40;;;21.10;24.60;;;;;;2235664;62;20852;-58
2022/12/02 06:48:42;0.00;0.00;0.62;0.00;0.00;0.62;15.60;13.50;;;21.10;24.70;;;;;;2235922;62;20413;-61
2022/12/02 06:51:28;0.00;0.00;0.62;0.00;0.00;0.62;15.13;11.90;;;21.20;24.80;;;;;;2235463;62;20406;-60
2022/12/02 06:54:22;0.00;0.00;0.62;0.00;0.00;0.62;12.03;10.70;;;21.10;25.20;;;;;;2236341;62;20975;-64
2022/12/02 06:57:09;0.00;0.00;0.62;0.00;0.00;0.62;14.80;11.63;;;21.20;24.80;;;;;;2235777;62;20438;-65
2022/12/02 06:59:54;0.00;0.00;0.62;0.00;0.00;0.62;12.10;10.80;;;21.20;24.80;;;;;;2235933;62;20406;-62
2022/12/02 07:02:40;0.00;0.00;0.62;0.00;0.00;0.62;13.63;10.77;;;21.20;24.80;;;;;;2235904;62;20937;-65
2022/12/02 07:05:25;0.00;0.00;0.62;0.00;0.00;0.62;12.63;10.13;;;21.20;25.30;;;;;;2235447;62;20437;-65
2022/12/02 07:08:11;0.00;0.00;0.62;0.00;0.00;0.62;11.40;9.50;;;21.20;24.70;;;;;;2235751;62;20458;-63
2022/12/02 07:10:55;0.00;0.00;0.62;0.00;0.00;0.62;10.60;9.27;;;21.20;24.70;;;;;;2235706;62;20379;-63
2022/12/02 07:13:40;0.00;0.00;0.62;0.00;0.00;0.62;13.13;10.40;;;21.20;24.70;;;;;;2235271;62;20414;-62
2022/12/02 07:16:33;0.00;0.00;0.62;0.00;0.00;0.62;12.53;9.60;;;21.20;24.70;;;;;;2236213;62;20350;-62
2022/12/02 07:19:22;0.00;0.00;0.62;0.00;0.00;0.62;15.27;10.30;;;21.20;24.80;;;;;;2235271;62;20960;-59
2022/12/02 07:22:17;0.00;0.00;0.62;0.00;0.00;0.62;11.00;9.53;;;21.20;24.80;;;;;;2235413;61;20374;-61
2022/12/02 07:25:30;0.00;0.00;0.62;0.00;0.00;0.62;10.33;9.20;;;21.20;24.90;;;;;;2235868;62;20779;-62
2022/12/02 07:28:25;0.00;0.00;0.62;0.00;0.00;0.62;10.80;9.03;;;21.20;24.90;;;;;;2235611;62;20378;-63
2022/12/02 07:31:20;0.00;0.00;0.62;0.00;0.00;0.62;11.87;9.50;;;21.20;24.80;;;;;;2235989;62;20415;-60
2022/12/02 07:34:06;0.00;0.00;0.62;0.00;0.00;0.62;13.67;10.03;;;21.30;24.90;;;;;;2235593;62;20471;-60
2022/12/02 07:36:50;0.00;0.00;0.62;0.00;0.00;0.62;10.70;7.80;;;21.20;24.90;;;;;;2235618;62;20419;-60
2022/12/02 07:39:35;0.00;0.00;0.62;0.00;0.00;0.62;9.70;8.70;;;21.30;25.00;;;;;;2235912;62;20402;-59
2022/12/02 07:42:21;0.00;0.00;0.62;0.00;0.00;0.62;9.33;8.40;;;21.30;25.00;;;;;;2235380;61;20942;-58
2022/12/02 07:45:07;0.00;0.00;0.62;0.00;0.00;0.62;10.07;8.90;;;21.30;25.00;;;;;;2232208;62;20378;-60
2022/12/02 07:47:52;0.00;0.00;0.62;0.00;0.00;0.62;10.80;8.97;;;21.30;25.10;;;;;;2235693;62;20418;-59
2022/12/02 07:50:37;0.00;0.00;0.62;0.00;0.00;0.62;9.27;8.10;;;21.30;25.10;;;;;;2235131;62;20377;-61
2022/12/02 07:53:22;0.00;0.00;0.62;0.00;0.00;0.62;8.53;7.60;;;21.30;25.60;;;;;;2235826;62;20834;-60
2022/12/02 07:56:07;0.00;0.00;0.62;0.00;0.00;0.62;10.03;9.03;;;21.30;25.10;;;;;;2235652;62;20374;-60
2022/12/02 07:58:53;0.00;0.00;0.62;0.00;0.00;0.62;9.70;7.60;;;21.40;25.70;;;;;;2270721;58;20463;-58
2022/12/02 08:01:38;0.00;0.00;0.62;0.00;0.00;0.62;9.10;7.90;;;21.30;25.10;;;;;;2240583;62;20391;-57
2022/12/02 08:04:23;0.00;0.00;0.62;0.00;0.00;0.62;8.70;7.60;;;21.30;25.10;;;;;;2234918;62;20483;-59
2022/12/02 08:07:08;0.00;0.00;0.62;0.00;0.00;0.62;8.73;6.80;;;21.40;25.20;;;;;;2235469;62;20371;-60
2022/12/02 08:09:53;0.00;0.00;0.62;0.00;0.00;0.62;8.40;6.93;;;21.40;25.20;;;;;;2235827;62;20767;-58
2022/12/02 08:12:38;0.00;0.00;0.62;0.00;0.00;0.62;9.10;7.63;;;21.40;25.20;;;;;;2235281;62;20450;-60
2022/12/02 08:15:24;0.00;0.00;0.62;0.00;0.00;0.62;10.17;7.93;;;21.40;25.20;;;;;;2235662;62;20365;-59
2022/12/02 08:18:09;0.00;0.00;0.62;0.00;0.00;0.62;8.17;7.30;;;21.40;25.20;;;;;;2235719;62;20787;-60
2022/12/02 08:20:54;0.00;0.00;0.62;0.00;0.00;0.62;9.57;7.13;;;21.40;25.20;;;;;;2234967;62;20879;-60
2022/12/02 08:23:39;0.00;0.00;0.62;0.00;0.00;0.62;9.30;7.70;;;21.40;25.20;;;;;;2235877;62;20405;-59
2022/12/02 08:26:24;0.00;0.00;0.62;0.00;0.00;0.62;7.27;6.40;;;21.40;25.20;;;;;;2231953;62;20415;-59
2022/12/02 08:29:09;0.00;0.00;0.62;0.00;0.00;0.62;7.40;6.17;;;21.40;25.20;;;;;;2235290;62;20370;-60
2022/12/02 08:31:55;0.00;0.00;0.62;0.00;0.00;0.62;9.03;6.50;;;21.50;25.20;;;;;;2256310;58;20418;-58
2022/12/02 08:34:41;0.00;0.00;0.62;0.00;0.00;0.62;9.83;7.00;;;21.50;25.20;;;;;;2235398;62;20378;-59
2022/12/02 08:37:26;0.00;0.00;0.62;0.00;0.00;0.62;8.63;6.70;;;21.50;25.20;;;;;;2235612;62;20443;-60
2022/12/02 08:40:12;0.00;0.00;0.62;0.00;0.00;0.62;7.50;5.87;;;21.50;25.20;;;;;;2233080;62;20425;-60
2022/12/02 08:42:56;0.00;0.00;0.62;0.00;0.00;0.62;6.83;6.13;;;21.50;25.20;;;;;;2235540;61;20405;-58
2022/12/02 08:45:42;0.00;0.00;0.62;0.00;0.00;0.62;6.50;5.87;;;21.50;25.20;;;;;;2236366;62;20929;-61
2022/12/02 08:48:28;0.00;0.00;0.62;0.00;0.00;0.62;7.67;6.17;;;21.60;25.30;;;;;;2235693;62;20418;-63
2022/12/02 08:51:13;0.00;0.00;0.62;0.00;0.00;0.62;6.73;6.13;;;21.60;25.30;;;;;;2253933;62;20426;-62
2022/12/02 08:53:57;0.00;0.00;0.62;0.00;0.00;0.62;7.97;6.60;;;21.60;25.30;;;;;;2236296;62;20386;-64
2022/12/02 08:56:43;0.00;0.00;0.62;0.00;0.00;0.62;7.57;6.50;;;21.60;25.30;;;;;;2234306;61;20369;-64
2022/12/02 08:59:28;0.00;0.00;0.62;0.00;0.00;0.62;7.87;6.80;;;21.60;25.20;;;;;;2235792;62;20457;-65
2022/12/02 09:02:12;0.00;0.00;0.62;0.00;0.00;0.62;7.20;6.33;;;21.60;25.10;;;;;;2236043;61;20378;-62
2022/12/02 09:04:58;0.00;0.00;0.62;0.00;0.00;0.62;7.80;6.37;;;21.60;25.10;;;;;;2235441;62;20423;-65
2022/12/02 09:07:43;0.00;0.00;0.62;0.00;0.00;0.62;6.80;5.57;;;21.60;25.10;;;;;;2236646;62;20382;-66
2022/12/02 09:10:27;0.00;0.00;0.62;0.00;0.00;0.62;7.27;6.13;;;21.70;25.10;;;;;;2235891;62;20370;-67
2022/12/02 09:13:12;0.00;0.00;0.62;0.00;0.00;0.62;7.53;6.67;;;21.70;25.10;;;;;;2236018;61;20390;-65
2022/12/02 09:15:57;0.00;0.00;0.62;0.00;0.00;0.62;8.60;6.33;;;21.70;25.60;;;;;;2236523;62;20454;-64
2022/12/02 09:18:41;0.00;0.00;0.62;0.00;0.00;0.62;6.90;6.20;;;21.70;25.10;;;;;;2236001;62;20389;-62
2022/12/02 09:21:28;0.00;0.00;0.62;0.00;0.00;0.62;6.40;5.37;;;21.70;25.10;;;;;;2236099;62;20363;-62
2022/12/02 09:24:13;0.00;0.00;0.62;0.00;0.00;0.62;7.90;6.10;;;21.70;25.10;;;;;;2236151;62;20402;-63
2022/12/02 09:26:57;0.00;0.00;0.62;0.00;0.00;0.62;6.43;5.13;;;21.70;25.10;;;;;;2235451;62;20426;-65
2022/12/02 09:29:42;0.00;0.00;0.62;0.00;0.00;0.62;6.97;6.27;;;21.70;25.10;;;;;;2236301;62;20782;-61
2022/12/02 09:32:26;0.00;0.00;0.62;0.00;0.00;0.62;7.87;6.03;;;21.70;25.10;;;;;;2236025;61;20394;-63
2022/12/02 09:35:12;0.00;0.00;0.62;0.00;0.00;0.62;7.67;5.97;;;21.70;25.10;;;;;;2236082;62;20369;-64
2022/12/02 09:37:58;0.00;0.00;0.62;0.00;0.00;0.62;6.43;5.73;;;21.70;25.10;;;;;;2236371;62;20414;-65
2022/12/02 09:40:43;0.00;0.00;0.62;0.00;0.00;0.62;7.00;5.60;;;21.70;25.10;;;;;;2235668;62;20426;-64
2022/12/02 09:43:29;0.00;0.00;0.62;0.00;0.00;0.62;7.43;6.00;;;21.70;25.00;;;;;;2236028;61;20441;-63
2022/12/02 09:46:14;0.00;0.00;0.62;0.00;0.00;0.62;6.40;5.80;;;21.70;25.00;;;;;;2236073;62;20920;-63
2022/12/02 09:48:59;0.00;0.00;0.62;0.00;0.00;0.62;7.40;5.83;;;21.70;25.00;;;;;;2235631;62;20438;-65
2022/12/02 09:51:44;0.00;0.00;0.62;0.00;0.00;0.62;5.57;4.97;;;21.70;24.90;;;;;;2236254;62;20370;-65
2022/12/02 09:54:31;0.00;0.00;0.62;0.00;0.00;0.62;6.03;4.90;;;21.70;24.90;;;;;;2235676;62;20366;-65
2022/12/02 09:57:17;0.00;0.00;0.62;0.00;0.00;0.62;6.00;5.40;;;21.70;24.90;;;;;;2235891;62;20374;-65
2022/12/02 10:00:07;0.00;0.00;0.62;0.00;0.00;0.62;7.30;5.77;;;21.70;24.90;;;;;;2236360;62;20402;-65
2022/12/02 10:02:53;0.00;0.00;0.62;0.00;0.00;0.62;5.80;4.90;;;21.70;24.90;;;;;;2235267;61;20394;-64
2022/12/02 10:05:38;0.00;0.00;0.62;0.00;0.00;0.62;5.87;5.20;;;21.70;24.80;;;;;;2235922;62;20366;-64
2022/12/02 10:08:26;0.00;0.00;0.62;0.00;0.00;0.62;6.00;5.20;;;21.70;24.80;;;;;;2236080;62;20967;-63
2022/12/02 10:11:19;0.00;0.00;0.62;0.00;0.00;0.62;6.13;4.97;;;21.70;24.80;;;;;;2235332;62;20430;-64
2022/12/02 10:14:05;0.00;0.00;0.62;0.00;0.00;0.62;6.00;4.73;;;21.70;24.80;;;;;;2235988;62;20462;-65
2022/12/02 10:16:52;0.00;0.00;0.62;0.00;0.00;0.62;6.07;5.17;;;21.70;24.80;;;;;;2235674;62;20431;-63
2022/12/02 10:19:37;0.00;0.00;0.62;0.00;0.00;0.62;6.17;5.57;;;21.70;24.80;;;;;;2235878;62;20370;-65
2022/12/02 10:22:21;0.00;0.00;0.62;0.00;0.00;0.62;5.30;4.73;;;21.70;24.80;;;;;;2235938;61;20426;-64
2022/12/02 10:25:07;0.00;0.00;0.62;0.00;0.00;0.62;5.00;4.50;;;21.70;24.70;;;;;;2235573;62;20378;-63
2022/12/02 10:27:53;0.00;0.00;0.62;0.00;0.00;0.62;5.67;4.70;;;21.70;24.80;;;;;;2235903;62;20374;-63
2022/12/02 10:30:48;0.00;0.00;0.62;0.00;0.00;0.62;5.23;4.73;;;21.70;24.70;;;;;;2235991;62;20445;-64
2022/12/02 10:33:36;0.00;0.00;0.62;0.00;0.00;0.62;6.03;4.37;;;21.70;25.30;;;;;;2235481;61;20393;-65
2022/12/02 10:36:33;0.00;0.00;0.62;0.00;0.00;0.62;5.47;4.67;;;21.70;24.70;;;;;;2236081;62;20899;-65
2022/12/02 10:39:25;0.00;0.00;0.62;0.00;0.00;0.62;5.50;5.00;;;21.70;24.70;;;;;;2232489;62;20418;-65
2022/12/02 10:42:15;0.00;0.00;0.62;0.00;0.00;0.62;5.70;5.10;;;21.70;24.70;;;;;;2235762;61;20448;-64
2022/12/02 10:45:19;0.00;0.00;0.62;0.00;0.00;0.62;5.20;4.50;;;21.70;24.70;;;;;;2236048;62;20374;-65
2022/12/02 10:48:15;0.00;0.00;0.62;0.00;0.00;0.62;5.23;4.03;;;21.70;24.70;;;;;;2235845;62;20779;-63
2022/12/02 10:51:00;0.00;0.00;0.62;0.00;0.00;0.62;5.80;4.90;;;21.70;24.70;;;;;;2235794;62;20362;-63